Time;durP1;ratioP1;P1;durP2;ratioP2;P2;SDS_P1;SDS_P2;PMS_P1;PMS_P2;Temp;Humidity;BMP_temperature;BMP_pressure;BME280_temperature;BME280_humidity;BME280_pressure;Samples;Min_cycle;Max_cycle;Signal;HPM_P1;HPM_P2
2022/05/27 00:01:27;;;;;;;14.60;4.83;;;;;;;;;;5068884;28;20091;-63
2022/05/27 00:03:54;;;;;;;8.40;4.00;;;;;;;;;;5069421;28;20074;-63
2022/05/27 00:06:20;;;;;;;15.87;4.90;;;;;;;;;;5069095;28;20535;-63
2022/05/27 00:08:46;;;;;;;12.37;5.10;;;;;;;;;;5069631;28;20062;-63
2022/05/27 00:11:12;;;;;;;9.83;4.37;;;;;;;;;;5067456;28;20048;-63
2022/05/27 00:13:39;;;;;;;9.20;4.07;;;;;;;;;;5069155;28;20044;-63
2022/05/27 00:16:05;;;;;;;13.60;6.17;;;;;;;;;;5068871;28;20051;-63
2022/05/27 00:18:31;;;;;;;12.53;4.37;;;;;;;;;;5062113;28;20045;-63
2022/05/27 00:20:58;;;;;;;12.87;4.60;;;;;;;;;;5049395;28;20045;-63
2022/05/27 00:23:24;;;;;;;12.13;5.07;;;;;;;;;;5048024;28;20045;-63
2022/05/27 00:25:50;;;;;;;12.43;5.57;;;;;;;;;;5049387;28;20383;-63
2022/05/27 00:28:16;;;;;;;11.37;5.40;;;;;;;;;;5049047;28;20049;-62
2022/05/27 00:30:42;;;;;;;8.83;3.57;;;;;;;;;;5048678;28;20399;-63
2022/05/27 00:33:08;;;;;;;12.17;4.47;;;;;;;;;;5050488;28;20052;-63
2022/05/27 00:35:35;;;;;;;11.43;4.83;;;;;;;;;;5068377;28;20040;-63
2022/05/27 00:38:01;;;;;;;10.83;4.83;;;;;;;;;;5071691;28;20525;-63
2022/05/27 00:40:33;;;;;;;11.87;5.27;;;;;;;;;;5072042;28;20078;-63
2022/05/27 00:42:59;;;;;;;16.20;6.67;;;;;;;;;;5066345;28;20049;-63
2022/05/27 00:45:26;;;;;;;11.73;4.53;;;;;;;;;;5061757;28;20294;-63
2022/05/27 00:47:53;;;;;;;12.97;6.23;;;;;;;;;;5072597;28;20041;-63
2022/05/27 00:50:22;;;;;;;12.93;5.83;;;;;;;;;;5055660;28;20105;-63
2022/05/27 00:52:48;;;;;;;14.80;6.77;;;;;;;;;;5052438;28;20136;-63
2022/05/27 00:55:20;;;;;;;13.57;5.37;;;;;;;;;;5051087;28;20045;-63
2022/05/27 00:57:52;;;;;;;14.57;6.97;;;;;;;;;;5052135;28;20540;-63
2022/05/27 01:00:20;;;;;;;15.23;7.17;;;;;;;;;;5050522;28;20368;-63
2022/05/27 01:02:46;;;;;;;27.67;10.50;;;;;;;;;;5052310;28;20045;-63
2022/05/27 01:05:13;;;;;;;20.73;8.73;;;;;;;;;;5052271;28;20080;-63
2022/05/27 01:07:39;;;;;;;22.47;8.63;;;;;;;;;;5052216;28;20094;-63
2022/05/27 01:10:07;;;;;;;22.57;9.13;;;;;;;;;;5071909;28;20525;-63
2022/05/27 01:12:47;;;;;;;16.77;8.57;;;;;;;;;;5071983;28;20051;-63
2022/05/27 01:15:13;;;;;;;13.93;7.13;;;;;;;;;;5071082;28;20452;-63
2022/05/27 01:17:39;;;;;;;16.37;8.10;;;;;;;;;;5072199;28;20040;-63
2022/05/27 01:20:21;;;;;;;28.73;10.70;;;;;;;;;;5067060;28;20043;-63
2022/05/27 01:22:57;;;;;;;21.97;8.97;;;;;;;;;;5052518;28;20573;-63
2022/05/27 01:25:41;;;;;;;24.13;10.23;;;;;;;;;;5050883;28;20041;-63
2022/05/27 01:28:27;;;;;;;16.23;9.13;;;;;;;;;;5051778;28;20491;-63
2022/05/27 01:31:28;;;;;;;22.07;8.93;;;;;;;;;;5051421;28;20044;-63
2022/05/27 01:34:03;;;;;;;26.03;10.00;;;;;;;;;;5029240;28;20056;-63
2022/05/27 01:36:47;;;;;;;18.57;8.17;;;;;;;;;;5048326;28;20061;-63
2022/05/27 01:39:19;;;;;;;30.77;12.83;;;;;;;;;;5051287;28;20060;-63
2022/05/27 01:41:48;;;;;;;16.33;8.83;;;;;;;;;;5051260;28;20048;-63
2022/05/27 01:44:24;;;;;;;21.10;10.00;;;;;;;;;;5051416;28;20049;-63
2022/05/27 01:46:50;;;;;;;18.30;10.50;;;;;;;;;;5051787;28;20049;-63
2022/05/27 01:49:29;;;;;;;39.03;13.87;;;;;;;;;;5050356;28;20053;-63
2022/05/27 01:51:55;;;;;;;30.17;12.83;;;;;;;;;;5050954;28;20590;-63
2022/05/27 01:54:21;;;;;;;27.87;11.43;;;;;;;;;;5067642;28;20781;-63
2022/05/27 01:56:49;;;;;;;19.97;10.20;;;;;;;;;;5070041;28;20569;-63
2022/05/27 01:59:18;;;;;;;29.60;11.33;;;;;;;;;;5070859;28;20048;-63
2022/05/27 02:01:48;;;;;;;22.40;9.90;;;;;;;;;;5070969;28;20052;-63
2022/05/27 02:04:18;;;;;;;23.93;9.20;;;;;;;;;;5054502;28;20040;-63
2022/05/27 02:06:49;;;;;;;22.27;11.33;;;;;;;;;;5050722;28;20396;-63
2022/05/27 02:09:20;;;;;;;25.30;10.03;;;;;;;;;;5050863;28;20052;-63
2022/05/27 02:11:48;;;;;;;21.57;10.20;;;;;;;;;;5051119;28;20136;-63
2022/05/27 02:14:21;;;;;;;31.13;10.63;;;;;;;;;;5051215;28;20049;-63
2022/05/27 02:16:50;;;;;;;34.38;9.82;;;;;;;;;;5051219;28;20088;-63
2022/05/27 02:19:22;;;;;;;27.83;11.63;;;;;;;;;;5049132;28;20080;-63
2022/05/27 02:21:49;;;;;;;24.57;10.00;;;;;;;;;;5049397;28;20098;-63
2022/05/27 02:24:19;;;;;;;24.67;10.30;;;;;;;;;;5050826;28;20049;-63
2022/05/27 02:26:49;;;;;;;28.53;10.97;;;;;;;;;;5051678;28;20566;-63
2022/05/27 02:29:18;;;;;;;24.20;9.17;;;;;;;;;;5066966;28;20093;-63
2022/05/27 02:31:47;;;;;;;37.90;12.40;;;;;;;;;;5063168;28;20040;-63
2022/05/27 02:37:04;;;;;;;38.40;11.83;;;;;;;;;;5057826;28;20045;-63
2022/05/27 02:39:31;;;;;;;37.13;9.53;;;;;;;;;;5060093;28;20076;-63
2022/05/27 02:41:57;;;;;;;22.70;8.43;;;;;;;;;;5056804;28;20049;-63
2022/05/27 02:44:42;;;;;;;31.40;10.73;;;;;;;;;;5057566;28;20546;-63
2022/05/27 02:47:12;;;;;;;38.63;10.60;;;;;;;;;;5059788;28;20065;-63
2022/05/27 02:49:46;;;;;;;22.10;8.57;;;;;;;;;;5057654;28;20064;-63
2022/05/27 02:52:31;;;;;;;21.50;8.43;;;;;;;;;;5057559;28;20514;-63
2022/05/27 02:55:03;;;;;;;27.67;10.13;;;;;;;;;;5058278;28;20052;-63
2022/05/27 02:57:41;;;;;;;24.97;8.40;;;;;;;;;;5057949;28;20051;-64
2022/05/27 03:00:09;;;;;;;27.37;8.37;;;;;;;;;;5059315;28;20080;-63
2022/05/27 03:02:35;;;;;;;32.87;8.57;;;;;;;;;;5057927;28;20041;-63
2022/05/27 03:05:02;;;;;;;40.30;10.47;;;;;;;;;;5060100;28;20090;-63
2022/05/27 03:07:28;;;;;;;31.00;8.80;;;;;;;;;;5054341;28;20056;-63
2022/05/27 03:10:14;;;;;;;29.97;9.03;;;;;;;;;;5061681;28;20052;-63
2022/05/27 03:12:46;;;;;;;34.67;7.83;;;;;;;;;;5060219;28;20134;-63
2022/05/27 03:15:21;;;;;;;34.43;9.40;;;;;;;;;;5065995;28;20520;-63
2022/05/27 03:18:02;;;;;;;24.33;8.07;;;;;;;;;;5068975;28;20060;-63
2022/05/27 03:20:33;;;;;;;31.73;10.20;;;;;;;;;;5069919;28;20422;-63
2022/05/27 03:23:05;;;;;;;31.93;8.00;;;;;;;;;;5067192;28;20045;-64
2022/05/27 03:25:46;;;;;;;25.00;8.10;;;;;;;;;;5069515;28;20093;-63
2022/05/27 03:28:21;;;;;;;25.70;7.00;;;;;;;;;;5068232;28;20055;-63
2022/05/27 03:30:55;;;;;;;37.47;8.93;;;;;;;;;;5069002;28;20052;-63
2022/05/27 03:33:40;;;;;;;27.67;7.53;;;;;;;;;;5067905;28;20060;-63
2022/05/27 03:36:19;;;;;;;24.67;7.17;;;;;;;;;;5069000;28;20041;-63
2022/05/27 03:39:01;;;;;;;32.50;9.17;;;;;;;;;;5068340;28;20052;-63
2022/05/27 03:41:32;;;;;;;26.63;6.77;;;;;;;;;;5059550;28;20052;-63
2022/05/27 03:43:58;;;;;;;34.53;8.63;;;;;;;;;;5049220;28;20056;-63
2022/05/27 03:46:28;;;;;;;24.37;7.63;;;;;;;;;;5049153;28;20380;-63
2022/05/27 03:48:54;;;;;;;27.70;8.27;;;;;;;;;;5049024;28;20053;-63
2022/05/27 03:51:22;;;;;;;20.63;6.80;;;;;;;;;;5049046;28;20136;-63
2022/05/27 03:54:03;;;;;;;22.13;7.07;;;;;;;;;;5048142;28;20055;-63
2022/05/27 03:56:31;;;;;;;15.20;5.03;;;;;;;;;;5048908;28;20045;-63
2022/05/27 03:58:57;;;;;;;24.00;7.30;;;;;;;;;;5049325;28;20049;-63
2022/05/27 04:01:25;;;;;;;29.10;6.90;;;;;;;;;;5048679;28;20045;-63
2022/05/27 04:03:52;;;;;;;18.63;5.03;;;;;;;;;;5049562;28;20080;-63
2022/05/27 04:06:18;;;;;;;28.30;6.00;;;;;;;;;;5048882;28;20037;-63
2022/05/27 04:08:44;;;;;;;21.63;6.17;;;;;;;;;;5048411;28;20044;-63
2022/05/27 04:11:10;;;;;;;27.27;6.87;;;;;;;;;;5047846;28;20084;-63
2022/05/27 04:13:36;;;;;;;25.83;8.13;;;;;;;;;;5058901;28;20052;-63
2022/05/27 04:16:02;;;;;;;26.20;6.83;;;;;;;;;;5072875;28;20045;-63
2022/05/27 04:18:28;;;;;;;26.43;7.10;;;;;;;;;;5072635;28;20084;-63
2022/05/27 04:20:54;;;;;;;23.77;6.60;;;;;;;;;;5072849;28;20083;-63
2022/05/27 04:23:20;;;;;;;20.73;6.77;;;;;;;;;;5072266;28;20080;-63
2022/05/27 04:25:47;;;;;;;30.63;6.67;;;;;;;;;;5072217;28;20589;-63
2022/05/27 04:28:13;;;;;;;27.30;5.83;;;;;;;;;;5072996;28;20045;-63
2022/05/27 04:30:39;;;;;;;27.23;6.83;;;;;;;;;;5072220;28;20049;-63
2022/05/27 04:33:05;;;;;;;27.80;5.20;;;;;;;;;;5072566;28;20049;-63
2022/05/27 04:35:31;;;;;;;17.30;4.83;;;;;;;;;;5071974;28;20048;-63
2022/05/27 04:37:57;;;;;;;20.80;4.97;;;;;;;;;;5072550;28;20170;-63
2022/05/27 04:40:23;;;;;;;27.23;5.93;;;;;;;;;;5071426;28;20056;-63
2022/05/27 04:42:49;;;;;;;24.00;6.37;;;;;;;;;;5071973;28;20045;-63
2022/05/27 04:45:15;;;;;;;17.77;4.70;;;;;;;;;;5072471;28;20070;-63
2022/05/27 04:47:41;;;;;;;17.93;4.90;;;;;;;;;;5053111;28;20105;-63
2022/05/27 04:50:11;;;;;;;23.67;5.50;;;;;;;;;;5052289;28;20060;-63
2022/05/27 04:52:38;;;;;;;16.13;4.07;;;;;;;;;;5051611;28;20419;-63
2022/05/27 04:55:09;;;;;;;21.73;5.60;;;;;;;;;;5051946;28;20041;-63
2022/05/27 04:57:36;;;;;;;25.40;5.70;;;;;;;;;;5051921;28;20045;-63
2022/05/27 05:00:05;;;;;;;21.37;6.00;;;;;;;;;;5052079;28;20053;-63
2022/05/27 05:02:31;;;;;;;20.30;5.00;;;;;;;;;;5052011;28;20406;-63
2022/05/27 05:04:57;;;;;;;30.07;5.67;;;;;;;;;;5051456;28;20048;-63
2022/05/27 05:07:24;;;;;;;23.57;4.13;;;;;;;;;;5051711;28;20048;-63
2022/05/27 05:09:51;;;;;;;24.27;4.73;;;;;;;;;;5050453;28;20083;-63
2022/05/27 05:12:22;;;;;;;22.43;5.47;;;;;;;;;;5050747;28;20077;-63
2022/05/27 05:14:48;;;;;;;19.87;4.37;;;;;;;;;;5052042;28;20041;-63
2022/05/27 05:17:14;;;;;;;25.90;5.53;;;;;;;;;;5051183;28;20063;-63
2022/05/27 05:19:40;;;;;;;18.57;4.17;;;;;;;;;;5051642;28;20083;-63
2022/05/27 05:22:06;;;;;;;20.17;4.10;;;;;;;;;;5051554;28;20487;-63
2022/05/27 05:24:32;;;;;;;24.90;5.03;;;;;;;;;;5051551;28;20076;-64
2022/05/27 05:26:59;;;;;;;15.67;3.83;;;;;;;;;;5051520;28;20059;-63
2022/05/27 05:29:25;;;;;;;16.53;3.40;;;;;;;;;;5054760;28;20029;-63
2022/05/27 05:31:51;;;;;;;21.53;4.03;;;;;;;;;;5060650;28;20136;-63
2022/05/27 05:34:17;;;;;;;18.03;3.67;;;;;;;;;;5058637;28;20071;-63
2022/05/27 05:36:43;;;;;;;16.77;4.03;;;;;;;;;;5049811;28;20049;-63
2022/05/27 05:39:09;;;;;;;23.33;3.70;;;;;;;;;;5048889;28;20430;-63
2022/05/27 05:41:36;;;;;;;15.30;3.90;;;;;;;;;;5050643;28;20076;-63
2022/05/27 05:44:02;;;;;;;15.63;4.10;;;;;;;;;;5050550;28;20048;-63
2022/05/27 05:46:28;;;;;;;15.20;4.00;;;;;;;;;;5050692;28;20088;-64
2022/05/27 05:48:55;;;;;;;15.10;3.77;;;;;;;;;;5050588;28;20049;-63
2022/05/27 05:51:21;;;;;;;14.43;3.40;;;;;;;;;;5050784;28;20487;-63
2022/05/27 05:53:47;;;;;;;17.37;3.67;;;;;;;;;;5050428;28;20075;-64
2022/05/27 05:56:13;;;;;;;11.83;3.53;;;;;;;;;;5050873;28;20337;-63
2022/05/27 05:58:39;;;;;;;11.20;2.77;;;;;;;;;;5050908;28;20049;-63
2022/05/27 06:01:05;;;;;;;13.13;4.03;;;;;;;;;;5050637;28;20048;-63
2022/05/27 06:03:31;;;;;;;22.07;4.07;;;;;;;;;;5056435;28;20093;-63
2022/05/27 06:05:57;;;;;;;15.60;3.67;;;;;;;;;;5061265;28;20047;-64
2022/05/27 06:08:23;;;;;;;17.67;2.70;;;;;;;;;;5049168;28;20127;-63
2022/05/27 06:10:49;;;;;;;16.27;2.87;;;;;;;;;;5050638;28;20098;-63
2022/05/27 06:13:16;;;;;;;16.07;4.03;;;;;;;;;;5050592;28;20194;-64
2022/05/27 06:15:42;;;;;;;17.60;4.00;;;;;;;;;;5050165;28;20405;-63
2022/05/27 06:18:08;;;;;;;18.77;3.87;;;;;;;;;;5050613;28;20048;-63
2022/05/27 06:20:35;;;;;;;21.83;4.13;;;;;;;;;;5058245;28;20064;-63
2022/05/27 06:23:06;;;;;;;17.93;3.40;;;;;;;;;;5066153;28;20057;-64
2022/05/27 06:25:32;;;;;;;19.17;4.60;;;;;;;;;;5049768;28;20083;-63
2022/05/27 06:36:16;;;;;;;18.90;3.60;;;;;;;;;;5069647;28;20045;-64
2022/05/27 06:38:42;;;;;;;15.63;3.33;;;;;;;;;;5069481;28;20195;-64
2022/05/27 06:41:08;;;;;;;20.17;3.80;;;;;;;;;;5058169;28;20075;-64
2022/05/27 06:43:34;;;;;;;16.67;3.37;;;;;;;;;;5049857;28;20047;-64
2022/05/27 06:46:00;;;;;;;16.07;3.93;;;;;;;;;;5048411;28;20120;-64
2022/05/27 06:48:26;;;;;;;15.20;2.90;;;;;;;;;;5049817;28;20073;-64
2022/05/27 06:50:53;;;;;;;14.23;3.60;;;;;;;;;;5049597;28;20040;-64
2022/05/27 06:53:19;;;;;;;17.10;3.17;;;;;;;;;;5049972;28;20037;-63
2022/05/27 06:55:49;;;;;;;17.23;3.83;;;;;;;;;;5056305;28;20155;-63
2022/05/27 06:58:15;;;;;;;13.53;3.03;;;;;;;;;;5069650;28;20052;-63
2022/05/27 07:00:41;;;;;;;13.17;3.10;;;;;;;;;;5068772;28;20105;-63
2022/05/27 07:03:07;;;;;;;21.13;3.37;;;;;;;;;;5055886;28;20045;-64
2022/05/27 07:05:33;;;;;;;18.43;3.63;;;;;;;;;;5058095;28;20119;-63
2022/05/27 07:08:00;;;;;;;17.20;3.70;;;;;;;;;;5061244;28;20574;-64
2022/05/27 07:10:26;;;;;;;16.60;3.50;;;;;;;;;;5060603;28;20041;-63
2022/05/27 07:12:53;;;;;;;20.70;3.40;;;;;;;;;;5049338;28;20495;-63
2022/05/27 07:15:19;;;;;;;20.30;3.00;;;;;;;;;;5060160;28;20040;-64
2022/05/27 07:17:45;;;;;;;15.23;3.03;;;;;;;;;;5059066;28;20102;-63
2022/05/27 07:20:11;;;;;;;14.50;2.50;;;;;;;;;;5060864;28;20037;-63
2022/05/27 07:22:37;;;;;;;15.10;3.37;;;;;;;;;;5049551;28;20049;-64
2022/05/27 07:25:04;;;;;;;13.73;3.63;;;;;;;;;;5055221;28;20375;-63
2022/05/27 07:27:29;;;;;;;11.37;3.67;;;;;;;;;;5062473;28;20379;-63
2022/05/27 07:29:55;;;;;;;22.63;3.40;;;;;;;;;;5058308;28;20051;-63
2022/05/27 07:32:21;;;;;;;16.27;3.73;;;;;;;;;;5069292;28;20040;-63
2022/05/27 07:34:47;;;;;;;16.77;4.17;;;;;;;;;;5054080;28;20048;-63
2022/05/27 07:37:13;;;;;;;19.00;3.27;;;;;;;;;;5065596;28;20048;-63
2022/05/27 07:39:39;;;;;;;13.87;3.57;;;;;;;;;;5062539;28;20049;-63
2022/05/27 07:42:06;;;;;;;17.43;3.27;;;;;;;;;;5066344;28;20139;-63
2022/05/27 07:44:31;;;;;;;16.70;4.07;;;;;;;;;;5049279;28;20045;-63
2022/05/27 07:46:57;;;;;;;14.43;3.20;;;;;;;;;;5051152;28;20132;-63
2022/05/27 07:49:23;;;;;;;15.13;3.53;;;;;;;;;;5051580;28;20040;-63
2022/05/27 07:51:49;;;;;;;13.63;3.57;;;;;;;;;;5051364;28;20045;-63
2022/05/27 07:54:15;;;;;;;19.70;3.90;;;;;;;;;;5051268;28;20041;-63
2022/05/27 07:56:42;;;;;;;12.87;2.80;;;;;;;;;;5051181;28;20940;-63
2022/05/27 07:59:08;;;;;;;21.87;3.17;;;;;;;;;;5049716;28;20466;-63
2022/05/27 08:01:36;;;;;;;14.23;3.33;;;;;;;;;;5051069;28;20036;-63
2022/05/27 08:04:03;;;;;;;11.30;2.73;;;;;;;;;;5051339;28;20582;-63
2022/05/27 08:06:29;;;;;;;11.53;2.73;;;;;;;;;;5052900;28;20080;-63
2022/05/27 08:08:55;;;;;;;13.40;2.77;;;;;;;;;;5052283;28;20076;-63
2022/05/27 08:11:21;;;;;;;10.57;2.40;;;;;;;;;;5052743;28;20454;-63
2022/05/27 08:13:47;;;;;;;10.97;2.50;;;;;;;;;;5052809;28;20048;-63
2022/05/27 08:16:13;;;;;;;12.40;2.77;;;;;;;;;;5052567;28;20495;-63
2022/05/27 08:18:39;;;;;;;8.63;2.30;;;;;;;;;;5052635;28;20128;-62
2022/05/27 08:21:05;;;;;;;12.13;4.07;;;;;;;;;;5052039;28;20410;-63
2022/05/27 08:23:31;;;;;;;15.60;3.03;;;;;;;;;;5052479;28;20051;-63
2022/05/27 08:25:58;;;;;;;11.57;2.33;;;;;;;;;;5051148;28;20052;-62
2022/05/27 08:28:27;;;;;;;13.20;2.10;;;;;;;;;;5052083;28;20049;-62
2022/05/27 08:30:56;;;;;;;14.07;2.70;;;;;;;;;;5052186;28;20495;-62
2022/05/27 08:38:00;;;;;;;12.50;2.10;;;;;;;;;;5052011;28;20160;-63
2022/05/27 08:38:57;;;;;;;11.27;2.60;;;;;;;;;;5052153;28;20500;-62
2022/05/27 08:41:32;;;;;;;14.03;3.60;;;;;;;;;;5050359;28;20056;-62
2022/05/27 08:44:21;;;;;;;13.33;3.83;;;;;;;;;;5050635;28;20183;-62
2022/05/27 08:46:53;;;;;;;24.37;4.07;;;;;;;;;;5047749;28;20076;-62
2022/05/27 08:49:22;;;;;;;9.97;2.53;;;;;;;;;;5050723;28;20041;-62
2022/05/27 08:52:02;;;;;;;12.43;2.60;;;;;;;;;;5050695;28;20091;-62
2022/05/27 08:54:36;;;;;;;11.67;2.33;;;;;;;;;;5048913;28;20049;-62
2022/05/27 08:59:51;;;;;;;10.93;2.30;;;;;;;;;;5050135;28;20056;-62
2022/05/27 09:02:26;;;;;;;10.90;2.63;;;;;;;;;;5049722;28;20099;-62
2022/05/27 09:05:02;;;;;;;12.10;2.30;;;;;;;;;;5050830;28;20052;-62
2022/05/27 09:07:55;;;;;;;13.13;2.80;;;;;;;;;;5050456;28;20091;-62
2022/05/27 09:10:39;;;;;;;9.25;2.42;;;;;;;;;;5047309;28;20502;-62
2022/05/27 09:13:08;;;;;;;7.53;2.20;;;;;;;;;;5050338;28;20041;-62
2022/05/27 09:15:47;;;;;;;9.63;2.63;;;;;;;;;;5050475;28;20569;-62
2022/05/27 09:18:20;;;;;;;12.37;2.53;;;;;;;;;;5050186;28;20138;-62
2022/05/27 09:20:46;;;;;;;;;;;;;;;;;;5050691;28;20128;-62
2022/05/27 09:23:18;;;;;;;15.37;3.03;;;;;;;;;;5050484;28;20024;-62
2022/05/27 09:25:44;;;;;;;7.17;2.60;;;;;;;;;;5049546;28;20045;-62
2022/05/27 09:28:10;;;;;;;9.63;2.37;;;;;;;;;;5050269;28;20135;-62
2022/05/27 09:30:36;;;;;;;16.70;3.10;;;;;;;;;;5050141;28;20132;-62
2022/05/27 09:33:04;;;;;;;13.37;3.20;;;;;;;;;;5049917;28;20053;-62
2022/05/27 09:36:03;;;;;;;14.97;3.03;;;;;;;;;;5050254;28;20049;-62
2022/05/27 09:38:30;;;;;;;10.73;2.00;;;;;;;;;;5037538;28;20060;-62
2022/05/27 09:41:02;;;;;;;11.30;1.90;;;;;;;;;;5013401;28;1064343;-62
2022/05/27 09:43:30;;;;;;;6.83;1.90;;;;;;;;;;5050911;28;20095;-62
2022/05/27 09:45:57;;;;;;;7.37;1.63;;;;;;;;;;5050884;28;20080;-62
2022/05/27 09:48:24;;;;;;;8.70;2.10;;;;;;;;;;5050344;28;20467;-62
2022/05/27 09:50:50;;;;;;;11.97;2.30;;;;;;;;;;5050740;28;20126;-62
2022/05/27 09:53:21;;;;;;;10.87;2.03;;;;;;;;;;5050317;28;20418;-62
2022/05/27 09:55:57;;;;;;;13.87;2.23;;;;;;;;;;5050811;28;20045;-61
2022/05/27 09:58:28;;;;;;;12.07;2.40;;;;;;;;;;5050554;28;20102;-62
2022/05/27 10:00:54;;;;;;;10.10;2.67;;;;;;;;;;5049243;28;20083;-62
2022/05/27 10:03:21;;;;;;;10.87;1.87;;;;;;;;;;5050606;28;20047;-61
2022/05/27 10:05:52;;;;;;;9.77;2.60;;;;;;;;;;5050299;28;20049;-61
2022/05/27 10:08:47;;;;;;;14.97;2.40;;;;;;;;;;5050133;28;20037;-62
2022/05/27 10:11:15;;;;;;;9.03;1.90;;;;;;;;;;5044973;28;20045;-61
2022/05/27 10:13:41;;;;;;;9.50;2.00;;;;;;;;;;5049906;28;20056;-61
2022/05/27 10:16:11;;;;;;;12.57;2.10;;;;;;;;;;5050150;28;20453;-61
2022/05/27 10:18:38;;;;;;;11.87;2.77;;;;;;;;;;5049856;28;20083;-61
2022/05/27 10:21:06;;;;;;;11.57;2.17;;;;;;;;;;5048463;28;20103;-61
2022/05/27 10:23:35;;;;;;;9.73;2.00;;;;;;;;;;5048399;28;20077;-61
2022/05/27 10:26:20;;;;;;;13.03;3.00;;;;;;;;;;5050020;28;20051;-61
2022/05/27 10:28:55;;;;;;;7.73;2.10;;;;;;;;;;5049683;28;20055;-61
2022/05/27 10:31:21;;;;;;;8.70;2.30;;;;;;;;;;5049710;28;20053;-61
2022/05/27 10:33:48;;;;;;;5.70;1.90;;;;;;;;;;5050146;28;20052;-61
2022/05/27 10:36:40;;;;;;;8.43;2.50;;;;;;;;;;5050092;28;20053;-61
2022/05/27 10:39:07;;;;;;;9.37;2.63;;;;;;;;;;5048255;28;20049;-61
2022/05/27 10:41:54;;;;;;;14.70;2.93;;;;;;;;;;5049773;28;20045;-61
2022/05/27 10:44:27;;;;;;;9.17;2.50;;;;;;;;;;5065875;28;20094;-61
2022/05/27 10:46:55;;;;;;;8.55;2.33;;;;;;;;;;5069501;28;20486;-61
2022/05/27 10:49:33;;;;;;;8.87;2.80;;;;;;;;;;5060436;28;20049;-61
2022/05/27 10:52:03;;;;;;;12.07;2.30;;;;;;;;;;5050325;28;20517;-61
2022/05/27 10:54:50;;;;;;;9.10;2.00;;;;;;;;;;5054440;28;20045;-61
2022/05/27 11:03:18;;;;;;;12.50;2.67;;;;;;;;;;5052873;28;20044;-61
2022/05/27 11:06:03;;;;;;;9.33;3.13;;;;;;;;;;5064321;28;20098;-61
2022/05/27 11:08:31;;;;;;;11.67;2.00;;;;;;;;;;5065555;28;20498;-60
2022/05/27 11:11:03;;;;;;;8.70;2.07;;;;;;;;;;5051845;28;20411;-61
2022/05/27 11:16:47;;;;;;;6.47;1.80;;;;;;;;;;5049648;28;20049;-60
2022/05/27 11:19:13;;;;;;;8.53;2.67;;;;;;;;;;5059655;28;20041;-60
2022/05/27 11:21:58;;;;;;;10.13;2.87;;;;;;;;;;5069213;28;20422;-60
2022/05/27 11:24:43;;;;;;;11.27;2.87;;;;;;;;;;5062188;28;20470;-60
2022/05/27 11:27:27;;;;;;;14.67;3.13;;;;;;;;;;5048937;28;20037;-61
2022/05/27 11:30:02;;;;;;;10.50;3.00;;;;;;;;;;5048963;28;20146;-60
2022/05/27 11:32:54;;;;;;;10.23;3.13;;;;;;;;;;5048922;28;20591;-60
2022/05/27 11:35:38;;;;;;;7.93;2.70;;;;;;;;;;5048861;28;20048;-60
2022/05/27 11:38:04;;;;;;;8.73;2.30;;;;;;;;;;5048564;28;20513;-60
2022/05/27 11:40:39;;;;;;;7.23;2.20;;;;;;;;;;5068493;28;20059;-60
2022/05/27 11:43:12;;;;;;;9.00;2.83;;;;;;;;;;5051039;28;20049;-60
2022/05/27 11:45:43;;;;;;;8.10;2.58;;;;;;;;;;5049046;28;20049;-60
2022/05/27 11:48:15;;;;;;;9.60;2.20;;;;;;;;;;5049054;28;20059;-60
2022/05/27 11:51:00;;;;;;;9.33;2.70;;;;;;;;;;5048737;28;20053;-60
2022/05/27 11:53:45;;;;;;;10.47;2.40;;;;;;;;;;5053878;28;20551;-60
2022/05/27 11:56:22;;;;;;;9.10;2.80;;;;;;;;;;5048230;28;20068;-60
2022/05/27 11:59:06;;;;;;;10.00;2.50;;;;;;;;;;5052577;28;20091;-60
2022/05/27 12:01:35;;;;;;;8.87;2.40;;;;;;;;;;5048404;28;20432;-60
2022/05/27 12:04:01;;;;;;;11.33;2.83;;;;;;;;;;5059316;28;20049;-60
2022/05/27 12:06:38;;;;;;;11.40;2.90;;;;;;;;;;5064031;28;20052;-60
2022/05/27 12:09:09;;;;;;;9.50;2.60;;;;;;;;;;5047563;28;20507;-60
2022/05/27 12:11:38;;;;;;;9.73;2.40;;;;;;;;;;5055827;28;20045;-60
2022/05/27 12:14:25;;;;;;;11.30;2.57;;;;;;;;;;5048469;28;20127;-60
2022/05/27 12:16:52;;;;;;;10.07;2.33;;;;;;;;;;5049221;28;20045;-60
2022/05/27 12:19:24;;;;;;;9.90;2.63;;;;;;;;;;5048926;28;20546;-60
2022/05/27 12:22:02;;;;;;;9.53;2.47;;;;;;;;;;5049053;28;20052;-60
2022/05/27 12:24:47;;;;;;;11.83;2.63;;;;;;;;;;5048117;28;20081;-60
2022/05/27 12:27:14;;;;;;;11.33;2.60;;;;;;;;;;5048840;28;20126;-60
2022/05/27 12:29:41;;;;;;;8.70;2.40;;;;;;;;;;5048776;28;20049;-60
2022/05/27 12:32:08;;;;;;;10.50;2.30;;;;;;;;;;5048740;28;20487;-60
2022/05/27 12:34:37;;;;;;;11.17;2.53;;;;;;;;;;5052235;28;20037;-60
2022/05/27 12:37:20;;;;;;;7.03;2.10;;;;;;;;;;5052169;28;20052;-60
2022/05/27 12:39:47;;;;;;;;;;;;;;;;;;5051322;28;20057;-60
2022/05/27 12:42:25;;;;;;;11.53;2.57;;;;;;;;;;5051293;28;19927;-60
2022/05/27 12:44:52;;;;;;;11.27;2.90;;;;;;;;;;5072136;28;20044;-60
2022/05/27 12:47:35;;;;;;;13.17;2.80;;;;;;;;;;5072079;28;20050;-60
2022/05/27 12:50:12;;;;;;;9.15;2.58;;;;;;;;;;5072156;28;20090;-60
2022/05/27 12:52:53;;;;;;;10.80;3.20;;;;;;;;;;5072127;28;20088;-60
2022/05/27 13:01:50;;;;;;;11.07;2.77;;;;;;;;;;5010837;28;20058;-60
2022/05/27 13:04:36;;;;;;;14.23;2.93;;;;;;;;;;5050409;28;20049;-60
2022/05/27 13:07:04;;;;;;;11.63;2.63;;;;;;;;;;5051792;28;20053;-60
2022/05/27 13:09:36;;;;;;;27.97;3.90;;;;;;;;;;5071361;28;20047;-60
2022/05/27 13:12:02;;;;;;;14.57;2.90;;;;;;;;;;5071806;28;20048;-60
2022/05/27 13:14:40;;;;;;;13.07;2.93;;;;;;;;;;5065130;28;20049;-60
2022/05/27 13:17:24;;;;;;;12.23;3.03;;;;;;;;;;5070763;28;20049;-60
2022/05/27 13:19:52;;;;;;;9.23;2.60;;;;;;;;;;5062527;28;20056;-60
2022/05/27 13:22:57;;;;;;;15.77;2.80;;;;;;;;;;5051324;28;20045;-61
2022/05/27 13:25:35;;;;;;;7.73;2.50;;;;;;;;;;5028703;28;20045;-60
2022/05/27 13:28:05;;;;;;;18.67;2.70;;;;;;;;;;5028673;28;20046;-60
2022/05/27 13:30:49;;;;;;;12.37;3.07;;;;;;;;;;5042927;28;20530;-60
2022/05/27 13:33:19;;;;;;;13.47;2.87;;;;;;;;;;5061587;28;20041;-60
2022/05/27 13:35:47;;;;;;;8.90;2.40;;;;;;;;;;5069318;28;20060;-60
2022/05/27 13:38:16;;;;;;;12.00;2.57;;;;;;;;;;5057791;28;20060;-60
2022/05/27 13:40:42;;;;;;;11.57;2.60;;;;;;;;;;5063386;28;20048;-60
2022/05/27 13:43:11;;;;;;;11.80;2.87;;;;;;;;;;5054359;28;20414;-60
2022/05/27 13:45:55;;;;;;;11.40;2.73;;;;;;;;;;5050812;28;20049;-60
2022/05/27 13:48:25;;;;;;;9.57;2.33;;;;;;;;;;5055125;28;20591;-60
2022/05/27 13:51:03;;;;;;;11.60;2.67;;;;;;;;;;5062119;28;20049;-60
2022/05/27 13:53:29;;;;;;;10.33;3.07;;;;;;;;;;5067723;28;20044;-60
2022/05/27 13:55:57;;;;;;;10.37;2.90;;;;;;;;;;5065610;28;20084;-60
2022/05/27 13:58:26;;;;;;;7.17;2.10;;;;;;;;;;5051115;28;20040;-60
2022/05/27 14:00:52;;;;;;;20.37;3.30;;;;;;;;;;5061242;28;20633;-60
2022/05/27 14:03:28;;;;;;;15.37;2.80;;;;;;;;;;5062067;28;20040;-60
2022/05/27 14:06:01;;;;;;;13.87;2.80;;;;;;;;;;5068831;28;20445;-60
2022/05/27 14:08:34;;;;;;;10.00;3.17;;;;;;;;;;5060024;28;20048;-60
2022/05/27 14:11:00;;;;;;;14.37;2.90;;;;;;;;;;5060715;28;20539;-60
2022/05/27 14:13:28;;;;;;;9.30;2.70;;;;;;;;;;5068425;28;20040;-60
2022/05/27 14:15:54;;;;;;;11.03;2.40;;;;;;;;;;5068564;28;20419;-60
2022/05/27 14:18:29;;;;;;;13.27;2.87;;;;;;;;;;5061572;28;20067;-60
2022/05/27 14:24:02;;;;;;;13.27;3.10;;;;;;;;;;5047830;28;20045;-60
2022/05/27 14:26:29;;;;;;;13.67;2.87;;;;;;;;;;5034973;28;20553;-60
2022/05/27 14:28:56;;;;;;;10.73;2.40;;;;;;;;;;5038476;28;20422;-60
2022/05/27 14:31:25;;;;;;;10.70;2.50;;;;;;;;;;5048757;28;20057;-60
2022/05/27 14:33:53;;;;;;;8.20;2.13;;;;;;;;;;5050491;28;20052;-60
2022/05/27 14:36:20;;;;;;;8.97;2.43;;;;;;;;;;5049706;28;20041;-60
2022/05/27 14:38:48;;;;;;;11.07;2.60;;;;;;;;;;5066982;28;20097;-60
2022/05/27 14:41:24;;;;;;;12.80;3.07;;;;;;;;;;5052063;28;20524;-60
2022/05/27 14:43:51;;;;;;;11.60;2.50;;;;;;;;;;5050921;28;20045;-60
2022/05/27 14:46:25;;;;;;;13.27;2.77;;;;;;;;;;5066569;28;20044;-59
2022/05/27 14:48:55;;;;;;;11.70;2.83;;;;;;;;;;5070343;28;20048;-60
2022/05/27 14:51:26;;;;;;;10.93;2.90;;;;;;;;;;5069804;28;20059;-60
2022/05/27 14:53:53;;;;;;;15.50;3.50;;;;;;;;;;5068974;28;20072;-60
2022/05/27 14:56:22;;;;;;;10.00;2.37;;;;;;;;;;5049470;28;20048;-60
2022/05/27 14:58:49;;;;;;;9.93;2.73;;;;;;;;;;5061191;28;20056;-60
2022/05/27 15:01:41;;;;;;;9.87;2.50;;;;;;;;;;5057864;28;20047;-59
2022/05/27 15:04:13;;;;;;;12.67;2.97;;;;;;;;;;5056477;28;20037;-60
2022/05/27 15:06:40;;;;;;;14.95;2.80;;;;;;;;;;5067345;28;20053;-60
2022/05/27 15:09:18;;;;;;;9.90;3.00;;;;;;;;;;5066933;28;20040;-60
2022/05/27 15:11:45;;;;;;;11.70;2.60;;;;;;;;;;5057661;28;20392;-60
2022/05/27 15:14:21;;;;;;;15.27;2.23;;;;;;;;;;5057759;28;20089;-60
2022/05/27 15:16:55;;;;;;;15.07;4.27;;;;;;;;;;5059560;28;20036;-60
2022/05/27 15:19:21;;;;;;;11.93;2.43;;;;;;;;;;5059099;28;20436;-61
2022/05/27 15:21:50;;;;;;;8.27;2.53;;;;;;;;;;5057213;28;20044;-60
2022/05/27 15:24:22;;;;;;;13.00;2.53;;;;;;;;;;5058223;28;20047;-60
2022/05/27 15:35:14;;;;;;;11.90;2.57;;;;;;;;;;5061428;28;20718;-60